createdAt,value
2018-10-17T00:03:06.025Z,88.30
2018-10-17T00:08:09.434Z,88.60
2018-10-17T00:13:12.988Z,89.50
2018-10-17T00:18:16.270Z,89.60
2018-10-17T00:23:19.684Z,89.00
2018-10-17T00:28:23.191Z,88.20
2018-10-17T00:33:26.630Z,87.60
2018-10-17T00:38:29.981Z,87.50
2018-10-17T00:43:33.332Z,87.20
2018-10-17T00:48:36.879Z,87.30
2018-10-17T00:53:40.413Z,88.20
2018-10-17T00:59:01.907Z,88.90
2018-10-17T01:04:06.036Z,88.90
2018-10-17T01:09:12.970Z,89.00
2018-10-17T01:14:16.880Z,88.70
2018-10-17T01:19:20.235Z,88.80
2018-10-17T01:24:23.615Z,88.10
2018-10-17T01:29:27.167Z,87.90
2018-10-17T01:34:30.646Z,88.90
2018-10-17T01:39:33.406Z,88.30
2018-10-17T01:44:36.123Z,88.10
2018-10-17T01:49:38.834Z,88.60
2018-10-17T01:54:41.618Z,89.00
2018-10-17T01:59:44.362Z,88.60
2018-10-17T02:04:47.055Z,89.10
2018-10-17T02:09:49.839Z,89.40
2018-10-17T02:14:52.511Z,89.10
2018-10-17T02:19:55.240Z,89.70
2018-10-17T02:24:57.965Z,90.10
2018-10-17T02:30:00.810Z,90.00
2018-10-17T02:35:21.085Z,89.40
2018-10-17T02:40:23.785Z,89.10
2018-10-17T02:45:26.513Z,89.00
2018-10-17T02:50:29.271Z,88.50
2018-10-17T02:55:32.065Z,88.30
2018-10-17T03:00:34.831Z,87.90
2018-10-17T03:05:37.564Z,87.60
2018-10-17T03:10:40.360Z,87.50
2018-10-17T03:15:43.103Z,87.60
2018-10-17T03:20:45.938Z,87.50
2018-10-17T03:25:48.642Z,87.60
2018-10-17T03:30:51.471Z,87.80
2018-10-17T03:35:54.413Z,88.20
2018-10-17T03:40:57.176Z,88.20
2018-10-17T03:45:59.894Z,88.80
2018-10-17T03:51:02.647Z,88.90
2018-10-17T03:56:05.442Z,88.80
2018-10-17T04:01:08.239Z,88.40
2018-10-17T04:06:10.938Z,88.20
2018-10-17T04:11:13.791Z,88.60
2018-10-17T04:16:16.805Z,89.00
2018-10-17T04:21:19.768Z,88.80
2018-10-17T04:26:22.995Z,88.30
2018-10-17T04:31:25.844Z,88.50
2018-10-17T04:36:28.575Z,88.50
2018-10-17T04:41:31.387Z,88.60
2018-10-17T04:46:34.185Z,89.00
2018-10-17T04:51:36.984Z,89.10
2018-10-17T04:56:39.783Z,89.30
2018-10-17T05:01:42.552Z,89.80
2018-10-17T05:06:45.430Z,89.70
2018-10-17T05:11:48.109Z,90.00
2018-10-17T05:16:50.886Z,90.20
2018-10-17T05:21:53.699Z,90.10
2018-10-17T05:26:57.263Z,89.80
2018-10-17T05:31:59.999Z,89.70
2018-10-17T05:37:02.801Z,90.00
2018-10-17T05:42:06.109Z,89.80
2018-10-17T05:47:08.888Z,90.00
2018-10-17T05:52:12.285Z,90.20
2018-10-17T05:57:15.044Z,90.40
2018-10-17T06:02:34.091Z,90.30
2018-10-17T06:07:36.836Z,90.50
2018-10-17T06:12:39.963Z,90.40
2018-10-17T06:17:43.496Z,90.70
2018-10-17T06:22:46.519Z,90.70
2018-10-17T06:27:49.462Z,90.30
2018-10-17T06:32:52.548Z,89.60
2018-10-17T06:37:55.508Z,89.10
2018-10-17T06:42:58.613Z,87.30
2018-10-17T06:48:01.546Z,86.80
2018-10-17T06:53:04.632Z,86.80
2018-10-17T06:58:07.487Z,87.10
2018-10-17T07:03:10.440Z,87.60
2018-10-17T07:08:13.392Z,87.50
2018-10-17T07:13:17.419Z,87.70
2018-10-17T07:18:20.958Z,87.80
2018-10-17T07:23:24.783Z,87.90
2018-10-17T07:28:28.782Z,87.60
2018-10-17T07:33:32.405Z,87.00
2018-10-17T07:38:35.871Z,87.10
2018-10-17T07:43:39.502Z,86.60
2018-10-17T07:48:43.099Z,86.20
2018-10-17T07:53:46.882Z,85.70
2018-10-17T07:58:50.448Z,84.10
2018-10-17T08:03:54.223Z,83.00
2018-10-17T08:08:57.858Z,83.10
2018-10-17T08:14:01.498Z,82.60
2018-10-17T08:19:06.018Z,81.20
2018-10-17T08:24:09.752Z,80.90
2018-10-17T08:29:13.860Z,79.80
2018-10-17T08:34:17.629Z,79.50
2018-10-17T08:39:21.410Z,79.60
2018-10-17T08:44:25.152Z,79.10
2018-10-17T08:49:28.900Z,79.10
2018-10-17T08:54:32.489Z,78.60
2018-10-17T08:59:36.164Z,77.80
2018-10-17T09:04:39.821Z,77.40
2018-10-17T09:09:43.471Z,74.80
2018-10-17T09:14:47.119Z,71.60
2018-10-17T09:19:50.968Z,71.10
2018-10-17T09:24:54.468Z,71.00
2018-10-17T09:29:58.171Z,69.80
2018-10-17T09:35:01.816Z,69.50
2018-10-17T09:40:07.139Z,69.20
2018-10-17T09:45:11.247Z,67.50
2018-10-17T09:50:14.746Z,67.70
2018-10-17T09:55:18.236Z,67.80
2018-10-17T10:00:27.582Z,67.00
2018-10-17T10:05:31.115Z,66.30
2018-10-17T10:10:34.691Z,65.40
2018-10-17T10:15:38.298Z,65.00
2018-10-17T10:20:41.977Z,64.10
2018-10-17T10:25:45.649Z,64.10
2018-10-17T10:30:49.248Z,62.60
2018-10-17T10:35:52.758Z,62.80
2018-10-17T10:40:56.441Z,63.10
2018-10-17T10:46:00.133Z,61.90
2018-10-17T10:51:04.294Z,61.00
2018-10-17T10:56:07.858Z,60.40
2018-10-17T11:01:12.774Z,59.80
2018-10-17T11:06:16.487Z,59.80
2018-10-17T11:11:20.263Z,59.20
2018-10-17T11:16:24.052Z,58.90
2018-10-17T11:21:28.444Z,59.00
2018-10-17T11:26:32.063Z,59.00
2018-10-17T11:31:35.584Z,58.00
2018-10-17T11:36:39.122Z,57.40
2018-10-17T11:41:42.721Z,57.10
2018-10-17T11:46:46.296Z,57.60
2018-10-17T11:51:49.825Z,57.00
2018-10-17T11:56:53.624Z,56.60
2018-10-17T12:01:58.288Z,55.50
2018-10-17T12:07:02.016Z,55.90
2018-10-17T12:12:05.812Z,56.20
2018-10-17T12:17:09.872Z,56.20
2018-10-17T12:22:13.604Z,55.60
2018-10-17T12:27:17.580Z,55.70
2018-10-17T12:32:21.303Z,55.40
2018-10-17T12:37:25.006Z,54.60
2018-10-17T12:42:28.791Z,54.50
2018-10-17T12:47:32.336Z,54.40
2018-10-17T12:52:36.031Z,55.10
2018-10-17T12:57:39.485Z,53.80
2018-10-17T13:02:42.987Z,54.10
2018-10-17T13:07:46.517Z,53.50
2018-10-17T13:12:49.990Z,53.40
2018-10-17T13:17:53.640Z,54.00
2018-10-17T13:22:57.215Z,54.10
2018-10-17T13:28:00.693Z,53.40
2018-10-17T13:33:05.140Z,53.40
2018-10-17T13:38:08.844Z,53.80
2018-10-17T13:43:12.436Z,53.00
2018-10-17T13:48:15.908Z,54.30
2018-10-17T13:53:19.489Z,54.10
2018-10-17T13:58:23.099Z,54.10
2018-10-17T14:03:26.687Z,54.00
2018-10-17T14:08:30.226Z,53.00
2018-10-17T14:13:33.845Z,53.70
2018-10-17T14:18:37.376Z,53.60
2018-10-17T14:23:40.977Z,53.60
2018-10-17T14:28:44.596Z,53.40
2018-10-17T14:33:48.359Z,53.60
2018-10-17T14:38:52.004Z,53.70
2018-10-17T14:43:55.770Z,53.50
2018-10-17T14:48:59.285Z,53.90
2018-10-17T14:54:02.981Z,55.00
2018-10-17T14:59:06.801Z,55.50
2018-10-17T15:04:10.295Z,55.80
2018-10-17T15:09:14.033Z,56.30
2018-10-17T15:14:17.506Z,56.40
2018-10-17T15:19:21.015Z,56.60
2018-10-17T15:24:24.553Z,56.60
2018-10-17T15:29:28.069Z,56.60
2018-10-17T15:34:31.587Z,57.00
2018-10-17T15:39:35.503Z,57.60
2018-10-17T15:44:39.285Z,58.30
2018-10-17T15:49:43.231Z,58.70
2018-10-17T15:54:46.835Z,59.10
2018-10-17T15:59:52.157Z,59.20
2018-10-17T16:04:56.100Z,59.90
2018-10-17T16:09:59.951Z,60.60
2018-10-17T16:15:03.769Z,60.30
2018-10-17T16:20:10.062Z,60.90
2018-10-17T16:25:13.541Z,62.10
2018-10-17T16:30:17.087Z,63.80
2018-10-17T16:35:20.528Z,64.40
2018-10-17T16:40:24.138Z,65.40
2018-10-17T16:45:27.790Z,65.90
2018-10-17T16:50:31.552Z,67.30
2018-10-17T16:55:35.132Z,69.50
2018-10-17T17:00:38.664Z,71.60
2018-10-17T17:05:42.186Z,73.00
2018-10-17T17:10:45.697Z,73.50
2018-10-17T17:15:49.405Z,74.20
2018-10-17T17:20:53.060Z,74.70
2018-10-17T17:25:57.169Z,74.60
2018-10-17T17:31:00.752Z,74.80
2018-10-17T17:36:04.657Z,74.80
2018-10-17T17:41:08.167Z,74.10
2018-10-17T17:46:11.749Z,73.80
2018-10-17T17:51:15.543Z,73.70
2018-10-17T17:56:19.340Z,73.60
2018-10-17T18:01:23.035Z,74.50
2018-10-17T18:06:26.618Z,74.50
2018-10-17T18:11:30.077Z,74.20
2018-10-17T18:16:33.570Z,74.40
2018-10-17T18:21:43.758Z,74.40
2018-10-17T18:26:47.436Z,74.80
2018-10-17T18:31:54.213Z,74.70
2018-10-17T18:36:57.879Z,75.00
2018-10-17T18:42:01.383Z,75.20
2018-10-17T18:47:05.445Z,76.10
2018-10-17T18:52:09.002Z,76.50
2018-10-17T18:57:12.726Z,77.10
2018-10-17T19:02:16.311Z,77.50
2018-10-17T19:07:19.813Z,77.90
2018-10-17T19:12:23.303Z,78.30
2018-10-17T19:17:27.045Z,78.50
2018-10-17T19:22:30.652Z,78.80
2018-10-17T19:27:34.228Z,79.00
2018-10-17T19:32:38.246Z,79.30
2018-10-17T19:37:41.748Z,79.50
2018-10-17T19:42:45.867Z,80.10
2018-10-17T19:47:49.465Z,80.80
2018-10-17T19:52:53.224Z,81.40
2018-10-17T19:57:56.722Z,81.90
2018-10-17T20:03:00.318Z,82.10
2018-10-17T20:08:03.918Z,82.80
2018-10-17T20:13:07.648Z,82.80
2018-10-17T20:18:11.401Z,83.60
2018-10-17T20:23:15.083Z,83.70
2018-10-17T20:28:18.573Z,85.20
2018-10-17T20:33:22.212Z,84.90
2018-10-17T20:38:25.732Z,85.70
2018-10-17T20:43:29.481Z,86.20
2018-10-17T20:48:33.066Z,87.00
2018-10-17T20:53:36.631Z,87.50
2018-10-17T20:58:40.169Z,88.60
2018-10-17T21:03:43.795Z,87.50
2018-10-17T21:08:47.699Z,87.10
2018-10-17T21:13:51.573Z,87.00
2018-10-17T21:18:55.059Z,86.40
2018-10-17T21:23:58.608Z,87.50
2018-10-17T21:29:02.216Z,88.70
2018-10-17T21:34:05.836Z,89.20
2018-10-17T21:39:11.663Z,90.00
2018-10-17T21:44:15.237Z,90.20
2018-10-17T21:49:18.724Z,90.60
2018-10-17T21:54:22.332Z,91.00
2018-10-17T21:59:25.905Z,91.30
2018-10-17T22:04:29.435Z,91.30
2018-10-17T22:09:33.086Z,90.90
2018-10-17T22:14:36.700Z,91.20
2018-10-17T22:19:40.754Z,91.60
2018-10-17T22:24:44.420Z,91.60
2018-10-17T22:29:47.993Z,91.60
2018-10-17T22:34:51.716Z,91.70
2018-10-17T22:39:55.296Z,92.20
2018-10-17T22:44:58.822Z,92.60
2018-10-17T22:50:02.355Z,92.70
2018-10-17T22:55:06.148Z,92.60
2018-10-17T23:00:10.504Z,92.50
2018-10-17T23:05:14.035Z,92.40
2018-10-17T23:10:17.619Z,92.20
2018-10-17T23:15:21.252Z,92.40
2018-10-17T23:20:24.775Z,92.60
2018-10-17T23:25:28.321Z,92.70
2018-10-17T23:30:31.948Z,92.40
2018-10-17T23:35:35.486Z,92.50
2018-10-17T23:40:39.027Z,92.50
2018-10-17T23:45:42.452Z,92.40
2018-10-17T23:50:45.906Z,92.30
2018-10-17T23:55:49.479Z,92.40
